Impacts METAR Board INFO
IDs:

KDFW - Dallas-Ft Worth Intl, TX, US

Updated at: 0455 UTC 18 Feb 2018
Potential Impact None Slight Moderate High
Time17/16Z 17/17Z 17/18Z 17/19Z 17/20Z 17/21Z 17/22Z 17/23Z 18/00Z 18/01Z 18/02Z 18/03Z 18/04Z
VIS10 10 10 10 10 10 10 10 10 10 10 10 10
CIG47 250 250 250 250 240 240 240 240 240 240 240 240
CoverBKNBKNBKNBKNBKNBKNBKNBKNOVCBKNBKNOVCOVC
FltCatVFRVFRVFRVFRVFRVFRVFRVFRVFRVFRVFRVFRVFR
WX--------------------------
WDir1702002000050202030303010070
WSpd6 6 5 0 6 10 10 10 8 6 3 4 3
WGst-- -- -- -- -- -- -- -- -- -- -- -- --
Raw hourly METARs
KDFW 171553Z 17006KT 10SM FEW008 SCT037 BKN047 BKN250 08/07 A3012 RMK AO2 RAE27 SLP196 P0005 T00780067
KDFW 171653Z 20006KT 10SM FEW008 SCT065 SCT110 BKN250 10/08 A3012 RMK AO2 SLP199 T01000078
KDFW 171753Z 20005KT 10SM FEW010 FEW045 SCT110 BKN250 12/08 A3011 RMK AO2 SLP194 60029 T01220083 10122 20067 58001
KDFW 171853Z 00000KT 10SM FEW045 SCT110 BKN250 15/08 A3011 RMK AO2 SLP192 T01500083
KDFW 171953Z VRB06KT 10SM FEW050 FEW110 BKN250 18/09 A3009 RMK AO2 SLP187 T01830089
KDFW 172053Z 05010KT 10SM FEW033 BKN240 BKN300 18/09 A3010 RMK AO2 SLP190 T01830089 55003
KDFW 172153Z 02010KT 10SM BKN240 BKN300 18/08 A3012 RMK AO2 SLP195 T01780078
KDFW 172253Z 02010KT 10SM BKN240 BKN300 17/07 A3012 RMK AO2 SLP198 T01720072
KDFW 172353Z 03008KT 10SM BKN240 OVC300 16/07 A3014 RMK AO2 SLP205 T01610072 10194 20122 53014
KDFW 180053Z 03006KT 10SM BKN240 BKN300 13/07 A3016 RMK AO2 SLP213 T01280067
KDFW 180153Z 03003KT 10SM BKN240 BKN300 13/07 A3018 RMK AO2 SLP219 T01280067
KDFW 180253Z 10004KT 10SM BKN240 OVC300 12/07 A3018 RMK AO2 SLP217 T01220072 50012
KDFW 180353Z 07003KT 10SM BKN240 OVC300 12/07 A3018 RMK AO2 SLP219 T01170067